Time;durP1;ratioP1;P1;durP2;ratioP2;P2;SDS_P1;SDS_P2;PMS_P1;PMS_P2;Temp;Humidity;BMP_temperature;BMP_pressure;BME280_temperature;BME280_humidity;BME280_pressure;Samples;Min_cycle;Max_cycle;Signal;HPM_P1;HPM_P2
2021/05/15 00:01:08;;;;;;;3.42;2.75;;;10.20;88.10;;;;;;3540797;40;20038;-67
2021/05/15 00:03:34;;;;;;;4.18;3.03;;;10.20;89.00;;;;;;3540832;40;20036;-67
2021/05/15 00:06:00;;;;;;;3.72;2.63;;;10.10;89.40;;;;;;3542666;40;20034;-67
2021/05/15 00:08:26;;;;;;;2.67;2.47;;;10.10;90.10;;;;;;3545076;40;20034;-68
2021/05/15 00:10:52;;;;;;;5.25;3.00;;;10.10;89.40;;;;;;3546452;40;20053;-68
2021/05/15 00:13:19;;;;;;;5.25;3.30;;;10.10;89.10;;;;;;3548356;40;20026;-68
2021/05/15 00:15:45;;;;;;;4.40;3.08;;;10.10;89.20;;;;;;3548922;40;20044;-69
2021/05/15 00:18:11;;;;;;;6.85;2.95;;;10.10;89.30;;;;;;3546977;40;20034;-68
2021/05/15 00:20:37;;;;;;;3.00;2.70;;;10.10;88.80;;;;;;3545561;40;20128;-68
2021/05/15 00:23:03;;;;;;;3.17;2.30;;;10.00;88.70;;;;;;3543186;40;20464;-68
2021/05/15 00:25:29;;;;;;;2.47;2.10;;;10.00;88.10;;;;;;3541364;40;20030;-68
2021/05/15 00:27:54;;;;;;;2.40;1.88;;;9.90;88.00;;;;;;3540711;40;20022;-68
2021/05/15 00:30:20;;;;;;;3.97;2.47;;;9.90;87.50;;;;;;3544496;40;20093;-68
2021/05/15 00:32:46;;;;;;;3.55;1.92;;;9.90;87.90;;;;;;3545720;40;20029;-68
2021/05/15 00:35:12;;;;;;;6.32;2.58;;;9.80;86.80;;;;;;3545882;40;20120;-68
2021/05/15 00:37:38;;;;;;;4.15;2.45;;;9.80;87.00;;;;;;3547629;40;20026;-68
2021/05/15 00:40:10;;;;;;;2.70;2.33;;;9.70;87.40;;;;;;3547782;40;20126;-67
2021/05/15 00:42:36;;;;;;;2.80;2.50;;;9.70;87.70;;;;;;3546695;40;20038;-68
2021/05/15 00:45:04;;;;;;;5.85;3.08;;;9.60;87.90;;;;;;3545819;40;20425;-68
2021/05/15 00:47:29;;;;;;;4.50;2.50;;;9.60;87.80;;;;;;3546811;40;20077;-68
2021/05/15 00:49:55;;;;;;;3.10;2.80;;;9.60;87.40;;;;;;3548283;40;20798;-68
2021/05/15 00:52:21;;;;;;;7.25;2.75;;;9.60;87.80;;;;;;3549267;40;20597;-68
2021/05/15 00:54:51;;;;;;;4.50;3.13;;;9.60;87.80;;;;;;3549846;40;20640;-67
2021/05/15 00:57:17;;;;;;;2.83;2.38;;;9.60;88.10;;;;;;3548210;40;20023;-67
2021/05/15 00:59:43;;;;;;;2.70;2.10;;;9.50;88.50;;;;;;3546007;40;20035;-68
2021/05/15 01:02:10;;;;;;;2.88;2.58;;;9.50;88.70;;;;;;3549058;40;20037;-70
2021/05/15 01:04:36;;;;;;;4.15;2.63;;;9.50;88.90;;;;;;3550468;40;20030;-68
2021/05/15 01:07:05;;;;;;;4.28;2.45;;;9.40;88.10;;;;;;3549412;40;20026;-67
2021/05/15 01:09:31;;;;;;;3.10;2.20;;;9.40;87.80;;;;;;3544855;40;20034;-65
2021/05/15 01:11:57;;;;;;;2.55;2.00;;;9.40;87.90;;;;;;3546489;40;20038;-66
2021/05/15 01:14:23;;;;;;;5.38;2.35;;;9.40;88.30;;;;;;3547407;40;20037;-65
2021/05/15 01:16:49;;;;;;;2.90;2.60;;;9.40;88.80;;;;;;3550458;40;20097;-65
2021/05/15 01:19:16;;;;;;;2.67;2.10;;;9.40;88.40;;;;;;3549997;40;20026;-65
2021/05/15 01:21:42;;;;;;;3.13;2.20;;;9.40;88.30;;;;;;3545758;40;20056;-66
2021/05/15 01:24:09;;;;;;;3.33;2.67;;;9.40;87.70;;;;;;3545501;40;20046;-67
2021/05/15 01:26:35;;;;;;;4.57;2.50;;;9.40;88.60;;;;;;3543381;40;20100;-66
2021/05/15 01:29:04;;;;;;;2.88;2.42;;;9.30;88.10;;;;;;3542572;40;20038;-67
2021/05/15 01:31:30;;;;;;;3.25;2.55;;;9.30;88.00;;;;;;3540508;40;20039;-66
2021/05/15 01:33:57;;;;;;;2.92;2.30;;;9.40;88.10;;;;;;3543891;40;20706;-66
2021/05/15 01:36:24;;;;;;;2.78;2.58;;;9.30;87.90;;;;;;3546265;40;20572;-68
2021/05/15 01:38:50;;;;;;;2.75;2.05;;;9.30;88.50;;;;;;3548437;40;20034;-68
2021/05/15 01:41:18;;;;;;;2.85;2.47;;;9.30;88.70;;;;;;3548721;40;20033;-68
2021/05/15 01:43:45;;;;;;;5.40;2.85;;;9.30;88.80;;;;;;3550441;40;20632;-68
2021/05/15 01:46:12;;;;;;;5.85;2.88;;;9.30;88.80;;;;;;3544458;40;20055;-68
2021/05/15 01:48:38;;;;;;;5.63;2.63;;;9.30;88.20;;;;;;3546622;40;20033;-68
2021/05/15 01:51:14;;;;;;;7.00;2.50;;;9.30;88.60;;;;;;3548281;40;20028;-66
2021/05/15 01:53:42;;;;;;;4.25;2.60;;;9.30;89.10;;;;;;3550634;40;20108;-68
2021/05/15 01:56:10;;;;;;;5.15;2.67;;;9.40;89.00;;;;;;3548948;40;20036;-68
2021/05/15 01:58:37;;;;;;;2.80;2.45;;;9.40;88.90;;;;;;3544399;40;20038;-68
2021/05/15 02:01:03;;;;;;;3.47;2.75;;;9.50;88.50;;;;;;3545999;40;20034;-68
2021/05/15 02:03:29;;;;;;;4.43;2.45;;;9.40;88.50;;;;;;3548547;40;20018;-67
2021/05/15 02:05:55;;;;;;;2.65;2.25;;;9.50;88.80;;;;;;3548654;40;20041;-67
2021/05/15 02:08:21;;;;;;;3.38;2.80;;;9.50;88.70;;;;;;3550178;40;20039;-67
2021/05/15 02:10:49;;;;;;;3.33;2.47;;;9.50;88.60;;;;;;3548053;40;20123;-66
2021/05/15 02:13:17;;;;;;;2.58;2.00;;;9.50;88.20;;;;;;3546684;40;20026;-67
2021/05/15 02:15:43;;;;;;;3.60;2.70;;;9.60;88.40;;;;;;3545698;40;20391;-66
2021/05/15 02:18:09;;;;;;;4.05;2.80;;;9.60;88.60;;;;;;3544167;40;20151;-66
2021/05/15 02:20:35;;;;;;;3.13;2.55;;;9.60;88.80;;;;;;3544257;40;20416;-67
2021/05/15 02:23:01;;;;;;;3.22;2.40;;;9.60;88.50;;;;;;3549369;40;20042;-68
2021/05/15 02:25:28;;;;;;;2.60;2.40;;;9.60;88.60;;;;;;3546894;40;20022;-68
2021/05/15 02:27:54;;;;;;;3.72;2.65;;;9.70;88.60;;;;;;3548705;40;20416;-68
2021/05/15 02:30:23;;;;;;;3.20;2.72;;;9.70;88.60;;;;;;3542953;40;20033;-68
2021/05/15 02:32:49;;;;;;;3.92;3.00;;;9.70;88.40;;;;;;3541813;40;20031;-68
2021/05/15 02:35:15;;;;;;;5.00;2.70;;;9.70;88.10;;;;;;3547620;40;20529;-68
2021/05/15 02:37:42;;;;;;;6.20;2.72;;;9.70;88.20;;;;;;3548271;40;20078;-67
2021/05/15 02:40:09;;;;;;;3.85;3.05;;;9.70;88.20;;;;;;3537382;40;20514;-67
2021/05/15 02:42:35;;;;;;;3.00;2.70;;;9.70;88.20;;;;;;3549636;40;20034;-66
2021/05/15 02:45:03;;;;;;;6.60;3.20;;;9.70;88.40;;;;;;3550582;40;20042;-67
2021/05/15 02:47:29;;;;;;;4.78;3.40;;;9.70;88.80;;;;;;3544551;40;20039;-66
2021/05/15 02:49:55;;;;;;;5.85;3.63;;;9.70;89.20;;;;;;3545836;40;20034;-67
2021/05/15 02:52:20;;;;;;;4.53;3.95;;;9.70;89.10;;;;;;3546364;40;20055;-66
2021/05/15 02:54:46;;;;;;;4.53;3.53;;;9.70;88.50;;;;;;3548169;40;20026;-65
2021/05/15 02:57:12;;;;;;;4.50;3.72;;;9.70;88.60;;;;;;3541038;40;20297;-67
2021/05/15 02:59:38;;;;;;;5.45;4.05;;;9.70;88.60;;;;;;3543421;40;20034;-67
2021/05/15 03:02:04;;;;;;;4.50;3.55;;;9.70;88.60;;;;;;3545626;40;20022;-67
2021/05/15 03:04:30;;;;;;;6.78;3.38;;;9.70;89.10;;;;;;3547071;40;20081;-67
2021/05/15 03:06:56;;;;;;;4.32;3.63;;;9.70;88.30;;;;;;3547083;40;20022;-67
2021/05/15 03:09:21;;;;;;;4.55;3.40;;;9.60;88.80;;;;;;3550443;40;20045;-66
2021/05/15 03:11:47;;;;;;;5.82;3.55;;;9.60;89.00;;;;;;3548504;40;20062;-68
2021/05/15 03:14:13;;;;;;;5.53;3.38;;;9.60;89.10;;;;;;3546426;40;20520;-68
2021/05/15 03:16:39;;;;;;;5.28;3.50;;;9.60;89.10;;;;;;3545734;40;20364;-68
2021/05/15 03:19:05;;;;;;;4.40;3.25;;;9.60;88.90;;;;;;3547450;40;20030;-68
2021/05/15 03:21:31;;;;;;;6.97;3.10;;;9.60;88.80;;;;;;3541427;40;20025;-68
2021/05/15 03:23:57;;;;;;;3.97;2.90;;;9.70;89.00;;;;;;3542800;40;20045;-68
2021/05/15 03:26:22;;;;;;;3.78;2.75;;;9.80;89.30;;;;;;3543121;40;20030;-68
2021/05/15 03:28:48;;;;;;;3.33;2.50;;;9.80;89.00;;;;;;3547472;40;20038;-68
2021/05/15 03:31:14;;;;;;;4.35;3.00;;;9.90;89.10;;;;;;3543008;40;20053;-68
2021/05/15 03:33:39;;;;;;;5.68;3.08;;;10.00;89.00;;;;;;3547568;40;20048;-68
2021/05/15 03:36:05;;;;;;;2.97;2.63;;;10.10;88.70;;;;;;3546466;40;20047;-68
2021/05/15 03:38:32;;;;;;;2.80;2.60;;;10.20;88.20;;;;;;3547888;40;20127;-69
2021/05/15 03:40:58;;;;;;;5.28;2.50;;;10.30;88.20;;;;;;3544595;40;20344;-66
2021/05/15 03:43:24;;;;;;;3.78;3.05;;;10.40;88.40;;;;;;3543690;40;20038;-66
2021/05/15 03:45:51;;;;;;;2.58;2.35;;;10.40;88.20;;;;;;3541526;40;20030;-66
2021/05/15 03:48:20;;;;;;;4.10;2.75;;;10.50;88.20;;;;;;3540236;40;20029;-67
2021/05/15 03:50:50;;;;;;;3.60;2.70;;;10.60;87.90;;;;;;3542339;40;20398;-66
2021/05/15 03:53:17;;;;;;;4.18;2.80;;;10.60;87.70;;;;;;3545213;40;20153;-67
2021/05/15 03:55:43;;;;;;;3.75;3.00;;;10.60;87.50;;;;;;3545597;40;20120;-66
2021/05/15 03:58:09;;;;;;;3.47;2.80;;;10.60;87.70;;;;;;3547664;40;20419;-66
2021/05/15 04:00:35;;;;;;;3.72;3.08;;;10.50;87.90;;;;;;3549095;40;20038;-67
2021/05/15 04:03:01;;;;;;;5.35;2.78;;;10.50;87.50;;;;;;3548100;40;20053;-66
2021/05/15 04:05:27;;;;;;;3.65;2.80;;;10.50;87.20;;;;;;3545706;40;20026;-65
2021/05/15 04:07:53;;;;;;;4.60;2.80;;;10.40;87.30;;;;;;3543643;40;20030;-65
2021/05/15 04:10:19;;;;;;;4.03;2.53;;;10.40;87.40;;;;;;3540766;40;20038;-67
2021/05/15 04:18:09;;;;;;;4.53;3.30;;;10.40;86.60;;;;;;3545802;40;20034;-67
2021/05/15 04:20:36;;;;;;;4.82;3.25;;;10.40;86.70;;;;;;3545632;40;20630;-67
2021/05/15 04:23:02;;;;;;;6.20;3.97;;;10.40;86.90;;;;;;3547680;40;20078;-65
2021/05/15 04:25:28;;;;;;;3.95;3.10;;;10.40;87.20;;;;;;3540897;40;20387;-67
2021/05/15 04:27:55;;;;;;;5.63;3.70;;;10.40;87.40;;;;;;3543155;40;20909;-66
2021/05/15 04:30:23;;;;;;;7.47;4.10;;;10.40;87.70;;;;;;3545880;40;20014;-65
2021/05/15 04:32:49;;;;;;;8.45;4.47;;;10.50;87.70;;;;;;3547644;40;20045;-67
2021/05/15 04:35:15;;;;;;;4.80;3.65;;;10.50;87.20;;;;;;3546856;40;20750;-67
2021/05/15 04:37:41;;;;;;;7.25;3.80;;;10.60;87.10;;;;;;3540033;40;20144;-67
2021/05/15 04:40:07;;;;;;;4.82;3.45;;;10.60;87.10;;;;;;3541344;40;20034;-67
2021/05/15 04:42:33;;;;;;;4.68;3.45;;;10.70;86.90;;;;;;3545516;40;20041;-67
2021/05/15 04:44:58;;;;;;;4.85;3.22;;;10.70;86.80;;;;;;3544193;40;20038;-67
2021/05/15 04:47:24;;;;;;;3.92;2.90;;;10.80;86.60;;;;;;3544431;40;20834;-67
2021/05/15 04:49:50;;;;;;;4.22;2.83;;;10.80;86.40;;;;;;3541887;40;20403;-67
2021/05/15 04:52:15;;;;;;;4.28;3.03;;;10.90;86.50;;;;;;3541009;40;20850;-67
2021/05/15 04:54:41;;;;;;;10.02;2.80;;;11.00;86.30;;;;;;3544522;40;20039;-67
2021/05/15 04:57:07;;;;;;;3.55;2.75;;;11.20;86.00;;;;;;3536081;40;20030;-67
2021/05/15 04:59:33;;;;;;;4.50;2.72;;;11.30;85.70;;;;;;3547092;40;20073;-66
2021/05/15 05:01:59;;;;;;;6.10;3.55;;;11.50;85.30;;;;;;3549203;40;20038;-66
2021/05/15 05:04:25;;;;;;;7.07;3.35;;;11.60;85.30;;;;;;3549464;40;20379;-66
2021/05/15 05:06:51;;;;;;;4.30;3.20;;;11.70;85.00;;;;;;3547418;40;20042;-66
2021/05/15 05:09:16;;;;;;;5.13;2.72;;;11.80;84.80;;;;;;3545178;40;20062;-66
2021/05/15 05:11:44;;;;;;;4.22;3.42;;;11.90;84.40;;;;;;3543135;40;20395;-68
2021/05/15 05:14:10;;;;;;;3.45;2.85;;;12.00;84.20;;;;;;3539785;40;20081;-66
2021/05/15 05:16:36;;;;;;;5.13;3.30;;;12.10;83.50;;;;;;3540643;40;20116;-65
2021/05/15 05:19:02;;;;;;;4.45;2.85;;;12.10;83.60;;;;;;3541094;40;20113;-65
2021/05/15 05:21:28;;;;;;;4.72;3.40;;;12.20;83.70;;;;;;3544677;40;20771;-65
2021/05/15 05:23:54;;;;;;;3.53;3.05;;;12.20;83.60;;;;;;3545348;40;20041;-65
2021/05/15 05:26:19;;;;;;;4.82;3.00;;;12.30;83.60;;;;;;3544538;40;20030;-66
2021/05/15 05:28:50;;;;;;;3.53;2.97;;;12.40;83.50;;;;;;3544624;40;20044;-67
2021/05/15 05:31:16;;;;;;;4.43;3.20;;;12.50;83.40;;;;;;3544449;40;20038;-67
2021/05/15 05:33:42;;;;;;;3.67;3.00;;;12.70;83.20;;;;;;3547175;40;20580;-66
2021/05/15 05:36:07;;;;;;;4.60;3.40;;;12.90;82.80;;;;;;3546741;40;20035;-67
2021/05/15 05:38:33;;;;;;;4.32;3.42;;;13.10;82.50;;;;;;3548935;40;20030;-66
2021/05/15 05:40:59;;;;;;;3.90;3.40;;;13.30;81.90;;;;;;3541997;40;20029;-67
2021/05/15 05:43:25;;;;;;;6.53;3.97;;;13.50;81.40;;;;;;3541509;40;20026;-66
2021/05/15 05:45:51;;;;;;;7.13;4.90;;;13.70;81.20;;;;;;3547874;40;20033;-66
2021/05/15 05:48:18;;;;;;;8.15;4.90;;;14.20;79.80;;;;;;3545208;40;20113;-67
2021/05/15 05:50:47;;;;;;;6.35;4.97;;;14.70;77.70;;;;;;3543164;40;20435;-68
2021/05/15 05:53:13;;;;;;;6.78;4.97;;;15.20;76.40;;;;;;3538742;40;20046;-66
2021/05/15 05:55:40;;;;;;;5.28;4.32;;;15.60;73.80;;;;;;3539575;40;20038;-67
2021/05/15 05:58:06;;;;;;;6.15;4.70;;;15.80;72.60;;;;;;3536638;40;20406;-67
2021/05/15 06:00:32;;;;;;;8.68;5.13;;;16.00;72.20;;;;;;3537558;40;20055;-66
2021/05/15 06:02:58;;;;;;;7.22;4.80;;;16.40;71.00;;;;;;3538483;40;20044;-66
2021/05/15 06:05:24;;;;;;;6.38;4.55;;;16.60;69.60;;;;;;3532494;40;20034;-67
2021/05/15 06:07:50;;;;;;;5.63;4.45;;;16.70;69.70;;;;;;3538448;40;20034;-67
2021/05/15 06:10:16;;;;;;;5.05;4.00;;;16.90;68.10;;;;;;3537630;40;20030;-67
2021/05/15 06:12:41;;;;;;;4.43;3.47;;;17.10;67.70;;;;;;3536582;40;20050;-67
2021/05/15 06:15:08;;;;;;;3.63;3.30;;;17.30;67.50;;;;;;3535188;40;20038;-66
2021/05/15 06:17:34;;;;;;;4.60;3.70;;;17.30;66.30;;;;;;3531973;40;20043;-67
2021/05/15 06:20:00;;;;;;;4.00;3.50;;;17.20;65.90;;;;;;3538753;40;20194;-67
2021/05/15 06:22:26;;;;;;;3.80;3.05;;;17.10;66.80;;;;;;3536476;40;20109;-67
2021/05/15 06:24:52;;;;;;;3.72;3.03;;;16.90;67.20;;;;;;3536295;40;20022;-66
2021/05/15 06:27:17;;;;;;;7.53;3.20;;;16.80;67.00;;;;;;3537996;40;20728;-67
2021/05/15 06:29:43;;;;;;;4.50;3.80;;;16.80;67.70;;;;;;3539836;40;20045;-68
2021/05/15 06:32:10;;;;;;;4.40;3.05;;;16.80;67.20;;;;;;3539864;40;20317;-68
2021/05/15 06:34:36;;;;;;;4.90;3.50;;;16.80;68.40;;;;;;3536088;40;20484;-72
2021/05/15 06:37:02;;;;;;;5.05;4.43;;;17.00;66.40;;;;;;3535873;40;20027;-72
2021/05/15 06:39:28;;;;;;;6.03;4.38;;;17.00;65.50;;;;;;3534275;40;20078;-70
2021/05/15 06:41:54;;;;;;;5.40;4.72;;;17.00;65.20;;;;;;3534149;40;20774;-71
2021/05/15 06:44:19;;;;;;;5.53;4.75;;;16.90;65.90;;;;;;3536266;40;20042;-71
2021/05/15 06:46:45;;;;;;;6.40;5.00;;;16.90;65.80;;;;;;3538949;40;20026;-70
2021/05/15 06:49:11;;;;;;;5.60;4.53;;;17.00;65.50;;;;;;3537385;40;20069;-69
2021/05/15 06:51:36;;;;;;;5.35;4.32;;;17.00;66.70;;;;;;3537179;40;20462;-70
2021/05/15 06:54:03;;;;;;;4.70;4.20;;;17.00;67.60;;;;;;3537070;40;20045;-70
2021/05/15 06:56:28;;;;;;;6.70;4.50;;;17.00;65.00;;;;;;3534706;40;20691;-71
2021/05/15 06:58:54;;;;;;;7.05;5.35;;;16.90;67.00;;;;;;3536096;40;20039;-70
2021/05/15 07:01:22;;;;;;;6.55;4.50;;;16.90;66.20;;;;;;3536764;40;20117;-70
2021/05/15 07:03:48;;;;;;;6.80;4.50;;;17.00;67.30;;;;;;3535661;40;20035;-70
2021/05/15 07:06:14;;;;;;;7.28;5.60;;;17.20;66.50;;;;;;3533966;40;20035;-70
2021/05/15 07:08:39;;;;;;;6.10;4.90;;;17.30;66.90;;;;;;3539188;40;20038;-64
2021/05/15 07:11:05;;;;;;;6.10;5.28;;;17.50;65.30;;;;;;3538201;40;20983;-67
2021/05/15 07:13:31;;;;;;;6.88;5.10;;;17.70;65.00;;;;;;3537004;40;20023;-67
2021/05/15 07:15:57;;;;;;;6.60;5.53;;;17.80;64.20;;;;;;3535473;40;20120;-69
2021/05/15 07:18:22;;;;;;;7.40;5.20;;;17.70;63.60;;;;;;3538163;40;20086;-68
2021/05/15 07:20:48;;;;;;;7.10;5.50;;;17.60;65.80;;;;;;3539174;40;20104;-68
2021/05/15 07:23:14;;;;;;;7.57;5.63;;;17.60;65.60;;;;;;3534640;40;20074;-67
2021/05/15 07:25:39;;;;;;;7.57;5.97;;;17.50;65.20;;;;;;3536903;40;20103;-67
2021/05/15 07:28:05;;;;;;;8.38;6.18;;;17.40;65.50;;;;;;3536039;40;20053;-66
2021/05/15 07:30:32;;;;;;;8.68;6.32;;;17.40;64.90;;;;;;3535583;40;20128;-66
2021/05/15 07:32:58;;;;;;;8.05;5.90;;;17.40;66.00;;;;;;3539467;40;20086;-67
2021/05/15 07:35:27;;;;;;;6.68;5.75;;;17.30;66.30;;;;;;3537329;40;20046;-66
2021/05/15 07:37:53;;;;;;;10.43;6.95;;;17.50;66.10;;;;;;3532767;40;20046;-68
2021/05/15 07:40:19;;;;;;;8.07;7.07;;;17.50;65.40;;;;;;3534696;40;20143;-67
2021/05/15 07:42:46;;;;;;;10.77;6.57;;;17.60;65.50;;;;;;3531658;40;20031;-67
2021/05/15 07:45:13;;;;;;;7.60;6.50;;;17.70;64.70;;;;;;3532691;40;20031;-67
2021/05/15 07:47:42;;;;;;;7.38;5.95;;;17.70;65.60;;;;;;3536884;40;20022;-66
2021/05/15 07:50:09;;;;;;;9.10;6.75;;;17.70;66.40;;;;;;3536560;40;20038;-67
2021/05/15 07:52:35;;;;;;;10.30;6.55;;;17.80;66.50;;;;;;3535715;40;20038;-67
2021/05/15 07:55:01;;;;;;;7.65;6.68;;;17.90;64.80;;;;;;3534246;40;20038;-66
2021/05/15 07:57:27;;;;;;;9.52;6.35;;;17.80;65.60;;;;;;3537958;40;20039;-67
2021/05/15 07:59:52;;;;;;;8.30;6.68;;;17.90;66.00;;;;;;3529541;40;20027;-67
2021/05/15 08:02:18;;;;;;;8.27;6.07;;;17.90;66.90;;;;;;3536796;40;20027;-67
2021/05/15 08:04:44;;;;;;;11.13;8.30;;;18.00;66.40;;;;;;3535647;40;20027;-67
2021/05/15 08:07:10;;;;;;;6.90;5.55;;;18.00;65.50;;;;;;3536304;40;20577;-67
2021/05/15 08:09:35;;;;;;;6.60;5.45;;;18.10;65.80;;;;;;3538084;40;20033;-67
2021/05/15 08:12:01;;;;;;;7.00;6.30;;;18.30;65.70;;;;;;3538857;40;20112;-66
2021/05/15 08:14:27;;;;;;;9.70;5.72;;;18.50;63.70;;;;;;3537257;40;20042;-69
2021/05/15 08:16:53;;;;;;;6.20;5.28;;;18.60;62.80;;;;;;3533568;40;20035;-66
2021/05/15 08:19:19;;;;;;;6.97;5.75;;;18.60;63.60;;;;;;3532890;40;20634;-67
2021/05/15 08:21:45;;;;;;;6.03;5.43;;;18.60;63.80;;;;;;3530983;40;20062;-65
2021/05/15 08:24:11;;;;;;;8.40;6.85;;;18.60;64.80;;;;;;3529882;40;20023;-66
2021/05/15 08:26:39;;;;;;;7.45;5.57;;;18.70;62.70;;;;;;3536272;40;20083;-67
2021/05/15 08:29:08;;;;;;;8.38;6.00;;;18.70;63.00;;;;;;3533519;40;20418;-67
2021/05/15 08:31:34;;;;;;;7.45;5.50;;;18.80;62.80;;;;;;3534913;40;20039;-67
2021/05/15 08:33:59;;;;;;;6.35;5.32;;;18.90;62.40;;;;;;3533875;40;20025;-67
2021/05/15 08:36:25;;;;;;;10.30;5.85;;;19.10;61.60;;;;;;3537371;40;20043;-66
2021/05/15 08:38:53;;;;;;;6.57;5.53;;;19.20;62.60;;;;;;3536352;40;20047;-67
2021/05/15 08:41:19;;;;;;;6.13;5.03;;;19.50;61.40;;;;;;3533596;40;20053;-66
2021/05/15 08:43:47;;;;;;;6.03;5.40;;;19.80;61.50;;;;;;3534775;40;20034;-66
2021/05/15 08:46:14;;;;;;;8.00;5.03;;;19.90;58.40;;;;;;3536822;40;20068;-67
2021/05/15 08:48:41;;;;;;;12.02;5.47;;;19.90;58.20;;;;;;3529321;40;20242;-66
2021/05/15 08:51:09;;;;;;;7.78;5.07;;;19.90;58.30;;;;;;3532466;40;20139;-69
2021/05/15 08:53:39;;;;;;;6.47;4.88;;;19.90;58.30;;;;;;3535087;40;20042;-66
2021/05/15 08:56:11;;;;;;;4.88;4.38;;;20.00;59.50;;;;;;3534763;40;20079;-68
2021/05/15 08:58:37;;;;;;;6.22;4.90;;;20.10;59.00;;;;;;3536179;40;20507;-69
2021/05/15 09:01:04;;;;;;;4.95;4.45;;;20.30;56.60;;;;;;3530262;40;20153;-70
2021/05/15 09:03:30;;;;;;;5.00;4.50;;;20.30;56.30;;;;;;3532564;40;20125;-66
2021/05/15 09:05:56;;;;;;;6.68;5.18;;;20.40;56.80;;;;;;3538474;40;20035;-67
2021/05/15 09:08:22;;;;;;;6.80;4.90;;;20.30;55.80;;;;;;3537764;40;20053;-67
2021/05/15 09:10:51;;;;;;;5.57;5.05;;;20.20;57.90;;;;;;3538523;40;20427;-69
2021/05/15 09:13:25;;;;;;;6.65;5.20;;;20.30;58.10;;;;;;3533332;40;20035;-69
2021/05/15 09:15:53;;;;;;;6.90;5.60;;;20.30;57.00;;;;;;3536280;40;20109;-69
2021/05/15 09:18:25;;;;;;;5.22;4.60;;;20.30;55.90;;;;;;3535110;40;20027;-69
2021/05/15 09:20:53;;;;;;;9.40;4.95;;;20.30;56.00;;;;;;3534753;40;20139;-67
2021/05/15 09:23:20;;;;;;;5.28;4.68;;;20.40;55.70;;;;;;3536705;40;20122;-70
2021/05/15 09:26:06;;;;;;;8.93;4.70;;;20.60;55.20;;;;;;3530583;40;20113;-69
2021/05/15 09:28:34;;;;;;;5.60;4.70;;;20.70;56.70;;;;;;3539909;40;20446;-65
2021/05/15 09:31:16;;;;;;;9.57;7.75;;;20.90;55.60;;;;;;3538072;40;20031;-66
2021/05/15 09:33:44;;;;;;;4.70;4.20;;;21.00;56.00;;;;;;3535646;40;20613;-64
2021/05/15 09:36:30;;;;;;;7.80;4.40;;;21.10;55.50;;;;;;3533842;40;20045;-66
2021/05/15 09:38:58;;;;;;;;;;;21.40;56.00;;;;;;3532250;40;20483;-65
2021/05/15 09:41:36;;;;;;;4.00;1.70;;;21.70;54.90;;;;;;3539087;40;20716;-66
2021/05/15 09:44:04;;;;;;;1.83;1.58;;;21.80;49.60;;;;;;3535260;40;20038;-65
2021/05/15 09:46:33;;;;;;;2.00;1.40;;;21.60;46.90;;;;;;3536257;40;20124;-65
2021/05/15 09:48:59;;;;;;;2.13;1.77;;;21.50;49.90;;;;;;3533457;40;20125;-66
2021/05/15 09:51:25;;;;;;;3.05;1.60;;;21.50;51.00;;;;;;3531537;40;20035;-65
2021/05/15 09:53:51;;;;;;;1.33;1.23;;;21.70;48.50;;;;;;3533044;40;20119;-66
2021/05/15 09:56:32;;;;;;;2.13;1.40;;;22.00;49.50;;;;;;3534592;40;20081;-64
2021/05/15 09:58:58;;;;;;;2.58;1.40;;;22.00;47.40;;;;;;3534871;40;20037;-63
2021/05/15 10:01:24;;;;;;;3.67;1.20;;;22.00;47.20;;;;;;3534428;40;20031;-69
2021/05/15 10:03:59;;;;;;;3.13;0.95;;;21.90;47.70;;;;;;3538581;40;20034;-68
2021/05/15 10:06:25;;;;;;;2.15;0.73;;;21.50;45.90;;;;;;3534873;40;20068;-69
2021/05/15 10:08:51;;;;;;;1.40;0.90;;;21.30;45.80;;;;;;3536719;40;20133;-65
2021/05/15 10:11:17;;;;;;;1.92;0.90;;;21.00;48.30;;;;;;3535016;40;20787;-64
2021/05/15 10:13:43;;;;;;;1.25;0.80;;;20.80;49.10;;;;;;3534698;40;20082;-63
2021/05/15 10:16:09;;;;;;;3.67;0.82;;;20.60;48.70;;;;;;3532044;40;20050;-65
2021/05/15 10:18:35;;;;;;;1.00;0.93;;;20.60;49.20;;;;;;3535451;40;20399;-64
2021/05/15 10:21:02;;;;;;;1.95;0.80;;;20.70;49.20;;;;;;3537775;40;20038;-64
2021/05/15 10:23:37;;;;;;;2.75;1.83;;;20.90;48.60;;;;;;3533852;40;20141;-64
2021/05/15 10:26:17;;;;;;;1.40;1.02;;;21.00;49.10;;;;;;3536290;40;20098;-64
2021/05/15 10:28:45;;;;;;;1.42;0.80;;;20.90;47.60;;;;;;3539300;40;20335;-64
2021/05/15 10:31:11;;;;;;;1.85;0.85;;;20.70;48.30;;;;;;3531706;40;20035;-64
2021/05/15 10:33:38;;;;;;;2.63;0.90;;;20.50;47.80;;;;;;3534206;40;20144;-64
2021/05/15 10:36:06;;;;;;;1.52;0.90;;;20.30;49.50;;;;;;3535047;40;20027;-64
2021/05/15 10:38:35;;;;;;;1.75;0.73;;;20.10;50.20;;;;;;3536710;40;20113;-64
2021/05/15 10:41:19;;;;;;;5.13;1.55;;;19.90;50.80;;;;;;3546695;40;20396;-63
2021/05/15 10:43:45;;;;;;;1.42;0.80;;;19.60;52.50;;;;;;3538970;40;20054;-63
2021/05/15 10:46:26;;;;;;;4.50;0.98;;;19.50;52.90;;;;;;3536763;40;20087;-62
2021/05/15 10:49:09;;;;;;;4.57;0.50;;;19.20;53.90;;;;;;3534961;40;20136;-62
2021/05/15 10:51:50;;;;;;;2.08;0.55;;;18.80;53.10;;;;;;3529291;40;20055;-62
2021/05/15 10:54:38;;;;;;;1.33;0.30;;;18.30;55.80;;;;;;3531710;40;20142;-62
2021/05/15 10:57:06;;;;;;;0.30;0.30;;;18.20;54.90;;;;;;3533104;40;20130;-62
2021/05/15 10:59:33;;;;;;;2.03;0.40;;;18.00;55.20;;;;;;3535406;40;20027;-62
2021/05/15 11:02:00;;;;;;;2.05;0.50;;;18.00;56.30;;;;;;3536380;40;20046;-62
2021/05/15 11:04:29;;;;;;;1.42;0.45;;;18.00;55.70;;;;;;3539260;40;20079;-61
2021/05/15 11:07:01;;;;;;;0.35;0.35;;;18.00;56.50;;;;;;3540727;40;20026;-62
2021/05/15 11:09:27;;;;;;;1.65;0.50;;;18.10;56.60;;;;;;3538565;40;20485;-62
2021/05/15 11:12:02;;;;;;;4.05;0.50;;;18.30;57.80;;;;;;3536341;40;20098;-63
2021/05/15 11:14:29;;;;;;;1.52;0.30;;;18.70;56.90;;;;;;3538954;40;20039;-62
2021/05/15 11:17:11;;;;;;;0.82;0.47;;;19.00;56.40;;;;;;3538629;40;20399;-62
2021/05/15 11:19:38;;;;;;;1.35;0.52;;;19.20;54.00;;;;;;3531552;40;20039;-62
2021/05/15 11:22:05;;;;;;;2.92;0.50;;;19.40;55.60;;;;;;3529753;40;20133;-63
2021/05/15 11:24:33;;;;;;;1.55;0.77;;;19.60;53.90;;;;;;3534678;40;20054;-62
2021/05/15 11:27:09;;;;;;;1.52;0.60;;;19.70;53.80;;;;;;3534947;40;20050;-68
2021/05/15 11:29:36;;;;;;;0.95;0.47;;;19.60;53.30;;;;;;3537859;40;20050;-67
2021/05/15 11:32:10;;;;;;;0.68;0.50;;;19.50;54.00;;;;;;3539663;40;20157;-67
2021/05/15 11:34:37;;;;;;;2.28;0.70;;;19.60;53.50;;;;;;3536842;40;20121;-67
2021/05/15 11:37:03;;;;;;;3.83;0.60;;;19.60;57.00;;;;;;3535994;40;20761;-61
2021/05/15 11:39:29;;;;;;;2.92;1.00;;;19.70;54.50;;;;;;3536353;40;20038;-66
2021/05/15 11:42:02;;;;;;;1.50;0.70;;;19.70;56.00;;;;;;3538000;40;20038;-68
2021/05/15 11:44:28;;;;;;;1.33;0.60;;;19.80;57.10;;;;;;3530741;40;20034;-67
2021/05/15 11:46:54;;;;;;;1.70;0.40;;;20.00;57.90;;;;;;3532082;40;20045;-67
2021/05/15 11:49:24;;;;;;;1.67;0.68;;;20.00;53.80;;;;;;3534480;40;20027;-67
2021/05/15 11:52:00;;;;;;;0.55;0.45;;;20.00;53.90;;;;;;3533289;40;20030;-67
2021/05/15 11:54:26;;;;;;;1.98;0.52;;;20.00;55.10;;;;;;3537847;40;20042;-62
2021/05/15 11:56:53;;;;;;;2.58;0.90;;;20.00;54.00;;;;;;3538864;40;20745;-62
2021/05/15 11:59:20;;;;;;;1.30;0.80;;;20.10;55.70;;;;;;3537315;40;20034;-62
2021/05/15 12:01:46;;;;;;;1.58;0.70;;;20.20;54.30;;;;;;3536815;40;20558;-62
2021/05/15 12:04:17;;;;;;;1.08;0.57;;;20.20;52.80;;;;;;3536463;40;20046;-62
2021/05/15 12:06:49;;;;;;;2.15;0.60;;;20.10;51.90;;;;;;3536847;40;20034;-62
2021/05/15 12:09:16;;;;;;;1.00;0.57;;;20.10;49.60;;;;;;3533385;40;20819;-67
2021/05/15 12:11:44;;;;;;;1.67;0.40;;;20.00;50.00;;;;;;3537999;40;20460;-67
2021/05/15 12:14:11;;;;;;;1.38;0.80;;;19.90;48.30;;;;;;3535956;40;20058;-66
2021/05/15 12:16:38;;;;;;;0.80;0.50;;;19.60;47.40;;;;;;3534490;40;20038;-67
2021/05/15 12:19:05;;;;;;;2.50;0.47;;;19.70;51.60;;;;;;3532621;40;20515;-67
2021/05/15 12:21:32;;;;;;;1.10;0.50;;;19.80;49.50;;;;;;3530447;40;20067;-62
2021/05/15 12:24:05;;;;;;;0.63;0.40;;;19.90;49.00;;;;;;3531904;40;20075;-62
2021/05/15 12:26:31;;;;;;;3.80;0.50;;;20.00;49.30;;;;;;3534153;40;20037;-62
2021/05/15 12:29:02;;;;;;;2.75;0.47;;;20.00;48.80;;;;;;3536023;40;20034;-62
2021/05/15 12:31:32;;;;;;;0.50;0.40;;;19.90;45.30;;;;;;3537659;40;20038;-62
2021/05/15 12:33:58;;;;;;;0.93;0.50;;;19.90;48.80;;;;;;3530315;40;20542;-62
2021/05/15 12:36:35;;;;;;;0.65;0.30;;;19.90;46.90;;;;;;3531599;40;20023;-62
2021/05/15 12:39:04;;;;;;;0.50;0.50;;;19.80;46.90;;;;;;3529903;40;20034;-62
2021/05/15 12:41:30;;;;;;;0.45;0.45;;;19.70;49.30;;;;;;3537219;40;20053;-62
2021/05/15 12:44:13;;;;;;;1.45;0.60;;;19.70;50.70;;;;;;3539094;40;20423;-62
2021/05/15 12:46:44;;;;;;;3.63;1.15;;;19.60;49.90;;;;;;3540645;40;20050;-67
2021/05/15 12:49:12;;;;;;;0.70;0.60;;;19.50;49.50;;;;;;3533840;40;20046;-67
2021/05/15 12:51:40;;;;;;;1.15;0.63;;;19.40;50.00;;;;;;3536789;40;20027;-62
2021/05/15 12:54:12;;;;;;;1.05;0.70;;;19.30;52.40;;;;;;3534893;40;20038;-61
2021/05/15 12:56:38;;;;;;;3.85;0.57;;;19.10;55.60;;;;;;3533626;40;20035;-67